Time;durP1;ratioP1;P1;durP2;ratioP2;P2;SDS_P1;SDS_P2;PMS_P1;PMS_P2;Temp;Humidity;BMP_temperature;BMP_pressure;BME280_temperature;BME280_humidity;BME280_pressure;Samples;Min_cycle;Max_cycle;Signal;HPM_P1;HPM_P2
2022/09/11 00:01:21;;;;;;;;;;;;;;;;;;6240827;23;19957;-78
2022/09/11 00:03:46;;;;;;;;;;;;;;;;;;6241654;23;20013;-76
2022/09/11 00:06:12;;;;;;;;;;;;;;;;;;6240095;23;19951;-77
2022/09/11 00:08:37;;;;;;;;;;;;;;;;;;6215016;23;19986;-75
2022/09/11 00:11:04;;;;;;;;;;;;;;;;;;6241363;23;20559;-76
2022/09/11 00:13:30;;;;;;;;;;;;;;;;;;6241906;23;19912;-77
2022/09/11 00:15:55;;;;;;;;;;;;;;;;;;6220734;23;19915;-76
2022/09/11 00:18:21;;;;;;;;;;;;;;;;;;6255172;23;19923;-77
2022/09/11 00:20:48;;;;;;;;;;;;;;;;;;6220911;23;19912;-76
2022/09/11 00:23:16;;;;;;;;;;;;;;;;;;6241880;23;19911;-77
2022/09/11 00:25:42;;;;;;;;;;;;;;;;;;6242213;23;19919;-76
2022/09/11 00:28:07;;;;;;;;;;;;;;;;;;6239990;23;19912;-76
2022/09/11 00:30:33;;;;;;;;;;;;;;;;;;6214864;23;19912;-76
2022/09/11 00:32:58;;;;;;;;;;;;;;;;;;6215019;23;19912;-76
2022/09/11 00:35:24;;;;;;;;;;;;;;;;;;6214084;23;19946;-77
2022/09/11 00:37:50;;;;;;;;;;;;;;;;;;6213896;23;19915;-77
2022/09/11 00:40:16;;;;;;;;;;;;;;;;;;6214342;23;19985;-75
2022/09/11 00:42:41;;;;;;;;;;;;;;;;;;6241744;23;20263;-75
2022/09/11 00:45:07;;;;;;;;;;;;;;;;;;6214931;23;20302;-76
2022/09/11 00:47:33;;;;;;;;;;;;;;;;;;6241385;23;19987;-77
2022/09/11 00:49:59;;;;;;;;;;;;;;;;;;6214793;23;19943;-77
2022/09/11 00:52:25;;;;;;;;;;;;;;;;;;6189311;23;19926;-78
2022/09/11 00:54:52;;;;;;;;;;;;;;;;;;6240838;23;19918;-76
2022/09/11 00:57:18;;;;;;;;;;;;;;;;;;6242884;23;19927;-77
2022/09/11 00:59:44;;;;;;;;;;;;;;;;;;6216437;23;19919;-76
2022/09/11 01:02:12;;;;;;;;;;;;;;;;;;6244726;23;19965;-80
2022/09/11 01:04:38;;;;;;;;;;;;;;;;;;6216170;23;19998;-75
2022/09/11 01:07:03;;;;;;;;;;;;;;;;;;6189042;23;19939;-77
2022/09/11 01:09:29;;;;;;;;;;;;;;;;;;6240680;23;19973;-78
2022/09/11 01:11:54;;;;;;;;;;;;;;;;;;6241459;23;19990;-78
2022/09/11 01:14:20;;;;;;;;;;;;;;;;;;6239081;23;19990;-77
2022/09/11 01:16:48;;;;;;;;;;;;;;;;;;6240019;23;20295;-76
2022/09/11 01:19:13;;;;;;;;;;;;;;;;;;6240666;23;19920;-78
2022/09/11 01:21:39;;;;;;;;;;;;;;;;;;6241326;23;20224;-77
2022/09/11 01:24:07;;;;;;;;;;;;;;;;;;6240365;23;20336;-78
2022/09/11 01:26:33;;;;;;;;;;;;;;;;;;6241776;23;19990;-78
2022/09/11 01:28:59;;;;;;;;;;;;;;;;;;6240665;23;20297;-77
2022/09/11 01:31:24;;;;;;;;;;;;;;;;;;6214305;23;19919;-78
2022/09/11 01:33:50;;;;;;;;;;;;;;;;;;6240782;23;19919;-78
2022/09/11 01:36:17;;;;;;;;;;;;;;;;;;6214062;23;20295;-78
2022/09/11 01:38:45;;;;;;;;;;;;;;;;;;6214332;23;19985;-77
2022/09/11 01:41:13;;;;;;;;;;;;;;;;;;6193350;23;20405;-78
2022/09/11 01:43:39;;;;;;;;;;;;;;;;;;6216086;23;19966;-76
2022/09/11 01:46:06;;;;;;;;;;;;;;;;;;6214062;23;19911;-77
2022/09/11 01:48:32;;;;;;;;;;;;;;;;;;6240183;23;19915;-77
2022/09/11 01:50:58;;;;;;;;;;;;;;;;;;6214291;23;19992;-75
2022/09/11 01:53:24;;;;;;;;;;;;;;;;;;6214003;23;19912;-76
2022/09/11 01:55:50;;;;;;;;;;;;;;;;;;6214348;23;19934;-76
2022/09/11 01:58:16;;;;;;;;;;;;;;;;;;6215686;23;19919;-77
2022/09/11 02:00:43;;;;;;;;;;;;;;;;;;6218259;23;19946;-75
2022/09/11 02:03:09;;;;;;;;;;;;;;;;;;6220818;23;19985;-77
2022/09/11 02:05:35;;;;;;;;;;;;;;;;;;6226096;23;20339;-77
2022/09/11 02:08:02;;;;;;;;;;;;;;;;;;6229917;23;19934;-77
2022/09/11 02:10:29;;;;;;;;;;;;;;;;;;6224955;23;19919;-76
2022/09/11 02:12:54;;;;;;;;;;;;;;;;;;6199344;23;19912;-76
2022/09/11 02:15:20;;;;;;;;;;;;;;;;;;6216265;23;19969;-75
2022/09/11 02:17:47;;;;;;;;;;;;;;;;;;6217296;23;20234;-77
2022/09/11 02:20:13;;;;;;;;;;;;;;;;;;6231302;23;19937;-77
2022/09/11 02:22:39;;;;;;;;;;;;;;;;;;6222823;23;19919;-75
2022/09/11 02:25:04;;;;;;;;;;;;;;;;;;6243044;23;19912;-76
2022/09/11 02:27:30;;;;;;;;;;;;;;;;;;6242536;23;19946;-76
2022/09/11 02:29:56;;;;;;;;;;;;;;;;;;6215875;23;19915;-76
2022/09/11 02:32:24;;;;;;;;;;;;;;;;;;6190227;23;19934;-76
2022/09/11 02:34:50;;;;;;;;;;;;;;;;;;6190782;23;19911;-77
2022/09/11 02:37:17;;;;;;;;;;;;;;;;;;6215620;23;20418;-77
2022/09/11 02:39:42;;;;;;;;;;;;;;;;;;6215747;23;20344;-77
2022/09/11 02:42:08;;;;;;;;;;;;;;;;;;6215517;23;19958;-77
2022/09/11 02:44:33;;;;;;;;;;;;;;;;;;6190423;23;19918;-77
2022/09/11 02:46:59;;;;;;;;;;;;;;;;;;6215656;23;20272;-77
2022/09/11 02:49:25;;;;;;;;;;;;;;;;;;6214628;23;19911;-76
2022/09/11 02:51:51;;;;;;;;;;;;;;;;;;6215828;23;20418;-77
2022/09/11 02:54:17;;;;;;;;;;;;;;;;;;6240247;23;20283;-77
2022/09/11 02:56:43;;;;;;;;;;;;;;;;;;6215066;23;19920;-75
2022/09/11 02:59:09;;;;;;;;;;;;;;;;;;6215145;23;19919;-77
2022/09/11 03:01:34;;;;;;;;;;;;;;;;;;6215942;23;20362;-77
2022/09/11 03:04:00;;;;;;;;;;;;;;;;;;6215535;23;20318;-77
2022/09/11 03:06:28;;;;;;;;;;;;;;;;;;6242303;23;19915;-77
2022/09/11 03:08:54;;;;;;;;;;;;;;;;;;6191600;23;19912;-77
2022/09/11 03:11:20;;;;;;;;;;;;;;;;;;6243371;23;19920;-76
2022/09/11 03:13:47;;;;;;;;;;;;;;;;;;6215968;23;19918;-76
2022/09/11 03:16:14;;;;;;;;;;;;;;;;;;6215413;23;20292;-76
2022/09/11 03:18:40;;;;;;;;;;;;;;;;;;6190296;23;19919;-78
2022/09/11 03:21:06;;;;;;;;;;;;;;;;;;6190293;23;19921;-77
2022/09/11 03:23:32;;;;;;;;;;;;;;;;;;6240251;23;19916;-77
2022/09/11 03:25:57;;;;;;;;;;;;;;;;;;6242242;23;19908;-77
2022/09/11 03:28:24;;;;;;;;;;;;;;;;;;6214632;23;19942;-77
2022/09/11 03:30:51;;;;;;;;;;;;;;;;;;6215253;23;19911;-77
2022/09/11 03:33:17;;;;;;;;;;;;;;;;;;6214269;23;19962;-77
2022/09/11 03:35:43;;;;;;;;;;;;;;;;;;6241591;23;19911;-77
2022/09/11 03:38:09;;;;;;;;;;;;;;;;;;6214815;23;19923;-78
2022/09/11 03:40:36;;;;;;;;;;;;;;;;;;6215187;23;19920;-77
2022/09/11 03:43:02;;;;;;;;;;;;;;;;;;6241968;23;19919;-77
2022/09/11 03:45:27;;;;;;;;;;;;;;;;;;6240327;23;19994;-77
2022/09/11 03:47:53;;;;;;;;;;;;;;;;;;6242188;23;19911;-78
2022/09/11 03:50:19;;;;;;;;;;;;;;;;;;6239798;23;19912;-76
2022/09/11 03:52:45;;;;;;;;;;;;;;;;;;6215543;23;19911;-77
2022/09/11 03:55:11;;;;;;;;;;;;;;;;;;6215155;23;19919;-77
2022/09/11 03:57:37;;;;;;;;;;;;;;;;;;6214909;23;20367;-77
2022/09/11 04:00:04;;;;;;;;;;;;;;;;;;6239833;23;19937;-77
2022/09/11 04:02:45;;;;;;;;;;;;;;;;;;6241632;23;20055;-78
2022/09/11 04:05:12;;;;;;;;;;;;;;;;;;6239412;23;19911;-77
2022/09/11 04:07:38;;;;;;;;;;;;;;;;;;6189797;23;19999;-76
2022/09/11 04:10:05;;;;;;;;;;;;;;;;;;6214775;23;19927;-78
2022/09/11 04:12:32;;;;;;;;;;;;;;;;;;6239523;23;19911;-76
2022/09/11 04:15:01;;;;;;;;;;;;;;;;;;6214961;23;19911;-76
2022/09/11 04:17:30;;;;;;;;;;;;;;;;;;6224725;23;19912;-77
2022/09/11 04:19:57;;;;;;;;;;;;;;;;;;6203155;23;20461;-76
2022/09/11 04:22:23;;;;;;;;;;;;;;;;;;6195135;23;19921;-77
2022/09/11 04:24:49;;;;;;;;;;;;;;;;;;6191017;23;19934;-77
2022/09/11 04:27:15;;;;;;;;;;;;;;;;;;6239939;23;19946;-77
2022/09/11 04:29:41;;;;;;;;;;;;;;;;;;6240976;23;19918;-76
2022/09/11 04:32:07;;;;;;;;;;;;;;;;;;6214169;23;20042;-76
2022/09/11 04:34:34;;;;;;;;;;;;;;;;;;6214546;23;19912;-75
2022/09/11 04:37:01;;;;;;;;;;;;;;;;;;6214644;23;19958;-77
2022/09/11 04:39:29;;;;;;;;;;;;;;;;;;6213355;23;19926;-76
2022/09/11 04:41:56;;;;;;;;;;;;;;;;;;6189255;23;19919;-76
2022/09/11 04:44:22;;;;;;;;;;;;;;;;;;6213513;23;19954;-77
2022/09/11 04:46:48;;;;;;;;;;;;;;;;;;6214399;23;19920;-76
2022/09/11 04:49:14;;;;;;;;;;;;;;;;;;6214472;23;19920;-77
2022/09/11 04:51:39;;;;;;;;;;;;;;;;;;6189134;23;19919;-77
2022/09/11 04:54:07;;;;;;;;;;;;;;;;;;6214300;23;19926;-77
2022/09/11 04:56:39;;;;;;;;;;;;;;;;;;6213428;23;19945;-77
2022/09/11 04:59:08;;;;;;;;;;;;;;;;;;6214092;23;19919;-77
2022/09/11 05:01:35;;;;;;;;;;;;;;;;;;6214170;23;20310;-78
2022/09/11 05:04:01;;;;;;;;;;;;;;;;;;6241590;23;20348;-78
2022/09/11 05:06:26;;;;;;;;;;;;;;;;;;6214235;23;20568;-77
2022/09/11 05:08:52;;;;;;;;;;;;;;;;;;6213357;23;20713;-78
2022/09/11 05:11:19;;;;;;;;;;;;;;;;;;6213613;23;19997;-76
2022/09/11 05:13:44;;;;;;;;;;;;;;;;;;6240048;23;19912;-77
2022/09/11 05:16:10;;;;;;;;;;;;;;;;;;6214391;23;19946;-78
2022/09/11 05:18:35;;;;;;;;;;;;;;;;;;6238372;23;20127;-77
2022/09/11 05:21:02;;;;;;;;;;;;;;;;;;6214164;23;20359;-76
2022/09/11 05:23:28;;;;;;;;;;;;;;;;;;6214035;23;19962;-77
2022/09/11 05:25:53;;;;;;;;;;;;;;;;;;6189783;23;19915;-81
2022/09/11 05:28:19;;;;;;;;;;;;;;;;;;6240413;23;19938;-81
2022/09/11 05:30:47;;;;;;;;;;;;;;;;;;6214707;23;19912;-80
2022/09/11 05:33:13;;;;;;;;;;;;;;;;;;6240327;23;20376;-81
2022/09/11 05:35:39;;;;;;;;;;;;;;;;;;6216622;23;19954;-81
2022/09/11 05:38:06;;;;;;;;;;;;;;;;;;6216817;23;19922;-81
2022/09/11 05:40:31;;;;;;;;;;;;;;;;;;6217374;23;19916;-82
2022/09/11 05:42:58;;;;;;;;;;;;;;;;;;6217343;23;19912;-81
2022/09/11 05:45:23;;;;;;;;;;;;;;;;;;6192006;23;19912;-82
2022/09/11 05:47:49;;;;;;;;;;;;;;;;;;6218116;23;19911;-80
2022/09/11 05:50:15;;;;;;;;;;;;;;;;;;6243324;23;20418;-79
2022/09/11 05:52:40;;;;;;;;;;;;;;;;;;6216822;23;19912;-82
2022/09/11 05:55:06;;;;;;;;;;;;;;;;;;6216903;23;20026;-82
2022/09/11 05:57:32;;;;;;;;;;;;;;;;;;6216709;23;19954;-81
2022/09/11 05:59:57;;;;;;;;;;;;;;;;;;6217191;23;20356;-79
2022/09/11 06:02:23;;;;;;;;;;;;;;;;;;6215719;23;19969;-78
2022/09/11 06:04:52;;;;;;;;;;;;;;;;;;6215879;23;19915;-79
2022/09/11 06:07:19;;;;;;;;;;;;;;;;;;6239294;23;19911;-77
2022/09/11 06:09:47;;;;;;;;;;;;;;;;;;6214874;23;19919;-77
2022/09/11 06:12:13;;;;;;;;;;;;;;;;;;6216208;23;20409;-76
2022/09/11 06:14:43;;;;;;;;;;;;;;;;;;6215332;23;19958;-78
2022/09/11 06:17:09;;;;;;;;;;;;;;;;;;6210434;23;19994;-78
2022/09/11 06:19:34;;;;;;;;;;;;;;;;;;6223850;23;19920;-78
2022/09/11 06:22:00;;;;;;;;;;;;;;;;;;6223675;23;19926;-80
2022/09/11 06:24:30;;;;;;;;;;;;;;;;;;6215000;23;19911;-78
2022/09/11 06:26:55;;;;;;;;;;;;;;;;;;6215571;23;20465;-79
2022/09/11 06:29:22;;;;;;;;;;;;;;;;;;6214671;23;19912;-79
2022/09/11 06:31:50;;;;;;;;;;;;;;;;;;6215082;23;20026;-80
2022/09/11 06:34:18;;;;;;;;;;;;;;;;;;6214444;23;19912;-79
2022/09/11 06:36:45;;;;;;;;;;;;;;;;;;6241550;23;20484;-77
2022/09/11 06:39:10;;;;;;;;;;;;;;;;;;6239621;23;19924;-79
2022/09/11 06:41:37;;;;;;;;;;;;;;;;;;6188988;23;19994;-78
2022/09/11 06:44:08;;;;;;;;;;;;;;;;;;6214626;23;19911;-76
2022/09/11 06:46:35;;;;;;;;;;;;;;;;;;6213488;23;19911;-78
2022/09/11 06:49:01;;;;;;;;;;;;;;;;;;6239073;23;19918;-78
2022/09/11 06:51:28;;;;;;;;;;;;;;;;;;6212913;23;19912;-79
2022/09/11 06:53:56;;;;;;;;;;;;;;;;;;6238491;23;19912;-79
2022/09/11 06:56:23;;;;;;;;;;;;;;;;;;6189138;23;19919;-79
2022/09/11 06:58:49;;;;;;;;;;;;;;;;;;6213017;23;20010;-76
2022/09/11 07:01:15;;;;;;;;;;;;;;;;;;6239057;23;20005;-76
2022/09/11 07:03:43;;;;;;;;;;;;;;;;;;6212698;23;19919;-75
2022/09/11 07:06:11;;;;;;;;;;;;;;;;;;6214444;23;19920;-75
2022/09/11 07:08:39;;;;;;;;;;;;;;;;;;6213394;23;19911;-76
2022/09/11 07:11:04;;;;;;;;;;;;;;;;;;6239170;23;19926;-78
2022/09/11 07:13:33;;;;;;;;;;;;;;;;;;6213908;23;19918;-77
2022/09/11 07:15:59;;;;;;;;;;;;;;;;;;6222865;23;19981;-81
2022/09/11 07:18:25;;;;;;;;;;;;;;;;;;6228139;23;20356;-83
2022/09/11 07:20:51;;;;;;;;;;;;;;;;;;6232540;23;19994;-83
2022/09/11 07:23:18;;;;;;;;;;;;;;;;;;6237404;23;19922;-84
2022/09/11 07:25:44;;;;;;;;;;;;;;;;;;6230516;23;19908;-85
2022/09/11 07:28:11;;;;;;;;;;;;;;;;;;6217238;23;19911;-82
2022/09/11 07:30:39;;;;;;;;;;;;;;;;;;6244287;23;19912;-83
2022/09/11 07:33:04;;;;;;;;;;;;;;;;;;6251107;23;19958;-84
2022/09/11 07:35:30;;;;;;;;;;;;;;;;;;6224411;23;19911;-84
2022/09/11 07:37:56;;;;;;;;;;;;;;;;;;6230025;23;20370;-83
2022/09/11 07:40:24;;;;;;;;;;;;;;;;;;6232895;23;19935;-83
2022/09/11 07:42:49;;;;;;;;;;;;;;;;;;6235594;23;19911;-83
2022/09/11 07:45:16;;;;;;;;;;;;;;;;;;6229992;23;20260;-83
2022/09/11 07:47:41;;;;;;;;;;;;;;;;;;6246463;23;19939;-82
2022/09/11 07:50:07;;;;;;;;;;;;;;;;;;6220272;23;19912;-82
2022/09/11 07:52:32;;;;;;;;;;;;;;;;;;6248470;23;20336;-82
2022/09/11 07:55:00;;;;;;;;;;;;;;;;;;6220190;23;20002;-82
2022/09/11 07:57:29;;;;;;;;;;;;;;;;;;6191426;23;20326;-82
2022/09/11 07:59:54;;;;;;;;;;;;;;;;;;6218486;23;19920;-83
2022/09/11 08:02:21;;;;;;;;;;;;;;;;;;6243720;23;19912;-81
2022/09/11 08:04:47;;;;;;;;;;;;;;;;;;6243853;23;19917;-81
2022/09/11 08:07:13;;;;;;;;;;;;;;;;;;6217367;23;20302;-83
2022/09/11 08:09:39;;;;;;;;;;;;;;;;;;6218114;23;19954;-83
2022/09/11 08:12:05;;;;;;;;;;;;;;;;;;6218091;23;19912;-83
2022/09/11 08:14:34;;;;;;;;;;;;;;;;;;6192329;23;19986;-82
2022/09/11 08:17:06;;;;;;;;;;;;;;;;;;6224332;23;19915;-84
2022/09/11 08:19:33;;;;;;;;;;;;;;;;;;6210365;23;19945;-84
2022/09/11 08:22:00;;;;;;;;;;;;;;;;;;6229903;23;19997;-81
2022/09/11 08:24:29;;;;;;;;;;;;;;;;;;6221654;23;19919;-83
2022/09/11 08:26:59;;;;;;;;;;;;;;;;;;6218173;23;19911;-83
2022/09/11 08:29:25;;;;;;;;;;;;;;;;;;6217165;23;20007;-82
2022/09/11 08:31:52;;;;;;;;;;;;;;;;;;6222040;23;19911;-83
2022/09/11 08:34:20;;;;;;;;;;;;;;;;;;6228731;23;19923;-86
2022/09/11 08:36:46;;;;;;;;;;;;;;;;;;6231576;23;20115;-82
2022/09/11 08:39:12;;;;;;;;;;;;;;;;;;6210565;23;20204;-88
2022/09/11 08:41:46;;;;;;;;;;;;;;;;;;6235517;23;19915;-82
2022/09/11 08:44:13;;;;;;;;;;;;;;;;;;6219644;23;19942;-83
2022/09/11 08:46:39;;;;;;;;;;;;;;;;;;6200949;23;19942;-82
2022/09/11 08:49:04;;;;;;;;;;;;;;;;;;6222916;23;19912;-90
2022/09/11 08:51:30;;;;;;;;;;;;;;;;;;6238706;23;19916;-87
2022/09/11 08:53:56;;;;;;;;;;;;;;;;;;6202745;23;19918;-83
2022/09/11 08:56:21;;;;;;;;;;;;;;;;;;6219574;23;19911;-86
2022/09/11 08:58:47;;;;;;;;;;;;;;;;;;6199870;23;19989;-84
2022/09/11 09:01:12;;;;;;;;;;;;;;;;;;6245823;23;20351;-82
2022/09/11 09:03:39;;;;;;;;;;;;;;;;;;6207585;23;19903;-89
2022/09/11 09:06:07;;;;;;;;;;;;;;;;;;6237589;23;19912;-90
2022/09/11 11:49:39;;;;;;;;;;;;;;;;;;6222677;23;19928;-82
2022/09/11 11:52:04;;;;;;;;;;;;;;;;;;6190689;23;19990;-82
2022/09/11 11:54:30;;;;;;;;;;;;;;;;;;6214879;23;19919;-82
2022/09/11 11:56:55;;;;;;;;;;;;;;;;;;6213778;23;20376;-81
2022/09/11 11:59:21;;;;;;;;;;;;;;;;;;6216569;23;20261;-81
2022/09/11 12:01:47;;;;;;;;;;;;;;;;;;6211970;23;19919;-80
2022/09/11 12:04:12;;;;;;;;;;;;;;;;;;6188054;23;20256;-83
2022/09/11 12:06:38;;;;;;;;;;;;;;;;;;6213219;23;19944;-78
2022/09/11 12:09:04;;;;;;;;;;;;;;;;;;6213194;23;19919;-78
2022/09/11 12:11:29;;;;;;;;;;;;;;;;;;6184922;23;19919;-78
2022/09/11 12:13:55;;;;;;;;;;;;;;;;;;6206416;23;20304;-78
2022/09/11 12:16:21;;;;;;;;;;;;;;;;;;6212225;23;19912;-78
2022/09/11 12:18:46;;;;;;;;;;;;;;;;;;6219052;23;19920;-80
2022/09/11 12:21:13;;;;;;;;;;;;;;;;;;6197931;23;19918;-78
2022/09/11 12:23:39;;;;;;;;;;;;;;;;;;6210756;23;19941;-77
2022/09/11 12:26:04;;;;;;;;;;;;;;;;;;6209409;23;20010;-77
2022/09/11 12:28:30;;;;;;;;;;;;;;;;;;6208686;23;20015;-76
2022/09/11 12:30:57;;;;;;;;;;;;;;;;;;6208180;23;19912;-76
2022/09/11 12:33:22;;;;;;;;;;;;;;;;;;6183629;23;20345;-76
2022/09/11 12:35:48;;;;;;;;;;;;;;;;;;6183328;23;20348;-76
2022/09/11 12:38:13;;;;;;;;;;;;;;;;;;6209130;23;20459;-76
2022/09/11 12:40:39;;;;;;;;;;;;;;;;;;6210812;23;19912;-76
2022/09/11 12:43:05;;;;;;;;;;;;;;;;;;6208948;23;19908;-76
2022/09/11 12:45:30;;;;;;;;;;;;;;;;;;6210790;23;19912;-76
2022/09/11 12:47:56;;;;;;;;;;;;;;;;;;6210645;23;19912;-76
2022/09/11 12:50:22;;;;;;;;;;;;;;;;;;6210486;23;20010;-74
2022/09/11 12:52:47;;;;;;;;;;;;;;;;;;6210725;23;19916;-76
2022/09/11 12:55:13;;;;;;;;;;;;;;;;;;6211084;23;19971;-76
2022/09/11 12:57:39;;;;;;;;;;;;;;;;;;6210613;23;19927;-76
2022/09/11 13:00:06;;;;;;;;;;;;;;;;;;6210423;23;19920;-76
2022/09/11 13:02:32;;;;;;;;;;;;;;;;;;6210435;23;19912;-77
2022/09/11 13:04:57;;;;;;;;;;;;;;;;;;6210432;23;20327;-76
2022/09/11 13:07:23;;;;;;;;;;;;;;;;;;6210764;23;19971;-76
2022/09/11 13:09:49;;;;;;;;;;;;;;;;;;6211158;23;19911;-76
2022/09/11 13:12:15;;;;;;;;;;;;;;;;;;6212422;23;19916;-76
2022/09/11 13:14:41;;;;;;;;;;;;;;;;;;6210472;23;19912;-76
2022/09/11 13:17:06;;;;;;;;;;;;;;;;;;6210490;23;19970;-77
2022/09/11 13:19:32;;;;;;;;;;;;;;;;;;6210557;23;19958;-76
2022/09/11 13:21:58;;;;;;;;;;;;;;;;;;6210734;23;19934;-76
2022/09/11 13:24:24;;;;;;;;;;;;;;;;;;6210489;23;20380;-76
2022/09/11 13:26:54;;;;;;;;;;;;;;;;;;6210336;23;19912;-76
2022/09/11 13:29:19;;;;;;;;;;;;;;;;;;6184080;23;19954;-76
2022/09/11 13:31:45;;;;;;;;;;;;;;;;;;6210269;23;19959;-77
2022/09/11 13:34:11;;;;;;;;;;;;;;;;;;6210751;23;19918;-76
2022/09/11 13:36:36;;;;;;;;;;;;;;;;;;6209780;23;19981;-76
2022/09/11 13:39:02;;;;;;;;;;;;;;;;;;6210310;23;20288;-76
2022/09/11 13:41:28;;;;;;;;;;;;;;;;;;6210217;23;19967;-76
2022/09/11 13:43:54;;;;;;;;;;;;;;;;;;6210407;23;19919;-76
2022/09/11 13:46:20;;;;;;;;;;;;;;;;;;6210290;23;19912;-76
2022/09/11 13:48:45;;;;;;;;;;;;;;;;;;6209922;23;20027;-76
2022/09/11 13:51:11;;;;;;;;;;;;;;;;;;6209770;23;19926;-76
2022/09/11 13:53:37;;;;;;;;;;;;;;;;;;6210365;23;20419;-76
2022/09/11 13:56:03;;;;;;;;;;;;;;;;;;6212163;23;19959;-76
2022/09/11 13:58:31;;;;;;;;;;;;;;;;;;6212448;23;19998;-76
2022/09/11 14:00:57;;;;;;;;;;;;;;;;;;6212036;23;19923;-76
2022/09/11 14:03:23;;;;;;;;;;;;;;;;;;6210258;23;19938;-76
2022/09/11 14:05:49;;;;;;;;;;;;;;;;;;6211999;23;19911;-76
2022/09/11 14:08:15;;;;;;;;;;;;;;;;;;6212353;23;19916;-76
2022/09/11 14:10:40;;;;;;;;;;;;;;;;;;6211892;23;19912;-76
2022/09/11 14:13:06;;;;;;;;;;;;;;;;;;6212231;23;20244;-76
2022/09/11 14:15:31;;;;;;;;;;;;;;;;;;6211968;23;19908;-76
2022/09/11 14:17:57;;;;;;;;;;;;;;;;;;6217800;23;19915;-75
2022/09/11 14:20:23;;;;;;;;;;;;;;;;;;6189265;23;19919;-75
2022/09/11 14:22:48;;;;;;;;;;;;;;;;;;6211856;23;19919;-76
2022/09/11 14:25:14;;;;;;;;;;;;;;;;;;6210201;23;19911;-76
2022/09/11 14:27:39;;;;;;;;;;;;;;;;;;6209958;23;19991;-76
2022/09/11 14:30:05;;;;;;;;;;;;;;;;;;6212099;23;19912;-75
2022/09/11 14:32:31;;;;;;;;;;;;;;;;;;6185080;23;19911;-76
2022/09/11 14:34:56;;;;;;;;;;;;;;;;;;6211947;23;19938;-76
2022/09/11 14:37:22;;;;;;;;;;;;;;;;;;6184576;23;19912;-75
2022/09/11 14:39:48;;;;;;;;;;;;;;;;;;6184666;23;19999;-75
2022/09/11 14:42:15;;;;;;;;;;;;;;;;;;6211671;23;19915;-76
2022/09/11 14:44:40;;;;;;;;;;;;;;;;;;6211352;23;19912;-76
2022/09/11 14:47:06;;;;;;;;;;;;;;;;;;6211625;23;19966;-75
2022/09/11 14:49:32;;;;;;;;;;;;;;;;;;6211674;23;19926;-75
2022/09/11 14:51:57;;;;;;;;;;;;;;;;;;6212322;23;19916;-76
2022/09/11 14:54:23;;;;;;;;;;;;;;;;;;6218986;23;19937;-75
2022/09/11 14:56:49;;;;;;;;;;;;;;;;;;6223092;23;20311;-76
2022/09/11 14:59:14;;;;;;;;;;;;;;;;;;6217464;23;20060;-76
2022/09/11 15:01:41;;;;;;;;;;;;;;;;;;6211655;23;19911;-76
2022/09/11 15:04:06;;;;;;;;;;;;;;;;;;6211372;23;19919;-77
2022/09/11 15:06:32;;;;;;;;;;;;;;;;;;6210481;23;20208;-76
2022/09/11 15:09:00;;;;;;;;;;;;;;;;;;6211423;23;19968;-76
2022/09/11 15:11:25;;;;;;;;;;;;;;;;;;6211172;23;19911;-76
2022/09/11 15:13:51;;;;;;;;;;;;;;;;;;6210170;23;19919;-76
2022/09/11 15:16:16;;;;;;;;;;;;;;;;;;6210581;23;20384;-76
2022/09/11 15:18:43;;;;;;;;;;;;;;;;;;6209582;23;20327;-76
2022/09/11 15:21:08;;;;;;;;;;;;;;;;;;6210631;23;19912;-76
2022/09/11 15:23:34;;;;;;;;;;;;;;;;;;6211159;23;19918;-76
2022/09/11 15:26:01;;;;;;;;;;;;;;;;;;6211022;23;19934;-76
2022/09/11 15:28:28;;;;;;;;;;;;;;;;;;6211209;23;19912;-76
2022/09/11 15:30:56;;;;;;;;;;;;;;;;;;6210649;23;19912;-76
2022/09/11 15:33:21;;;;;;;;;;;;;;;;;;6212128;23;19912;-76
2022/09/11 15:35:47;;;;;;;;;;;;;;;;;;6210855;23;19916;-76
2022/09/11 15:38:12;;;;;;;;;;;;;;;;;;6211255;23;19912;-76
2022/09/11 15:40:38;;;;;;;;;;;;;;;;;;6211072;23;19973;-76
2022/09/11 15:43:04;;;;;;;;;;;;;;;;;;6210875;23;19923;-75
2022/09/11 15:45:30;;;;;;;;;;;;;;;;;;6210824;23;19912;-76
2022/09/11 15:47:57;;;;;;;;;;;;;;;;;;6183813;23;19912;-76
2022/09/11 15:50:27;;;;;;;;;;;;;;;;;;6210408;23;19974;-76
2022/09/11 15:52:52;;;;;;;;;;;;;;;;;;6210411;23;19922;-76
2022/09/11 15:55:18;;;;;;;;;;;;;;;;;;6210551;23;19958;-76
2022/09/11 15:57:43;;;;;;;;;;;;;;;;;;6211371;23;19911;-76
2022/09/11 16:00:09;;;;;;;;;;;;;;;;;;6210781;23;19966;-77
2022/09/11 16:02:37;;;;;;;;;;;;;;;;;;6184306;23;19980;-77
2022/09/11 16:05:03;;;;;;;;;;;;;;;;;;6210742;23;19912;-77
2022/09/11 16:07:29;;;;;;;;;;;;;;;;;;6210366;23;19912;-77
2022/09/11 16:09:55;;;;;;;;;;;;;;;;;;6183919;23;20249;-78
2022/09/11 16:12:20;;;;;;;;;;;;;;;;;;6184471;23;19937;-77
2022/09/11 16:14:47;;;;;;;;;;;;;;;;;;6211666;23;19922;-78
2022/09/11 16:17:18;;;;;;;;;;;;;;;;;;6223610;23;19935;-78
2022/09/11 16:19:44;;;;;;;;;;;;;;;;;;6220522;23;19947;-77
2022/09/11 16:22:10;;;;;;;;;;;;;;;;;;6209782;23;20010;-82
2022/09/11 18:14:32;;;;;;;;;;;;;;;;;;6241839;22;19927;-81
2022/09/11 18:16:57;;;;;;;;;;;;;;;;;;6195444;23;19935;-79
2022/09/11 18:19:23;;;;;;;;;;;;;;;;;;6267157;22;19971;-83
2022/09/11 18:21:49;;;;;;;;;;;;;;;;;;6262187;23;19911;-83
2022/09/11 18:24:19;;;;;;;;;;;;;;;;;;6209352;23;19953;-86
2022/09/11 18:56:27;;;;;;;;;;;;;;;;;;6245213;22;19968;-82
2022/09/11 18:58:52;;;;;;;;;;;;;;;;;;6218400;23;19920;-83
2022/09/11 19:01:18;;;;;;;;;;;;;;;;;;6222686;23;20005;-82
2022/09/11 19:03:44;;;;;;;;;;;;;;;;;;6226195;23;19943;-82
2022/09/11 19:06:09;;;;;;;;;;;;;;;;;;6252856;23;19912;-83
2022/09/11 19:08:38;;;;;;;;;;;;;;;;;;6228252;23;20662;-83
2022/09/11 19:11:04;;;;;;;;;;;;;;;;;;6254545;22;19912;-80
2022/09/11 19:13:30;;;;;;;;;;;;;;;;;;6203872;23;19912;-83
2022/09/11 19:15:55;;;;;;;;;;;;;;;;;;6229541;23;19923;-83
2022/09/11 19:18:21;;;;;;;;;;;;;;;;;;6256258;23;20415;-82
2022/09/11 19:20:46;;;;;;;;;;;;;;;;;;6258323;23;19912;-81
2022/09/11 19:23:12;;;;;;;;;;;;;;;;;;6255835;23;19955;-82
2022/09/11 19:25:38;;;;;;;;;;;;;;;;;;6255442;22;19931;-84
2022/09/11 19:28:03;;;;;;;;;;;;;;;;;;6244734;22;21012;-83
2022/09/11 19:30:30;;;;;;;;;;;;;;;;;;6167440;23;19944;-82
2022/09/11 19:32:55;;;;;;;;;;;;;;;;;;6218348;23;19912;-79
2022/09/11 19:35:21;;;;;;;;;;;;;;;;;;6199662;23;20352;-82
2022/09/11 19:37:47;;;;;;;;;;;;;;;;;;6198450;23;19912;-83
2022/09/11 19:40:12;;;;;;;;;;;;;;;;;;6229484;23;19924;-80
2022/09/11 19:42:38;;;;;;;;;;;;;;;;;;6226292;23;19912;-83
2022/09/11 19:45:04;;;;;;;;;;;;;;;;;;6215437;23;19934;-73
2022/09/11 19:47:30;;;;;;;;;;;;;;;;;;6184990;23;19942;-75
2022/09/11 19:49:55;;;;;;;;;;;;;;;;;;6211532;23;20272;-75
2022/09/11 19:52:21;;;;;;;;;;;;;;;;;;6207832;23;20363;-76
2022/09/11 19:54:47;;;;;;;;;;;;;;;;;;6183335;23;20256;-73
2022/09/11 19:57:12;;;;;;;;;;;;;;;;;;6210831;23;19915;-75
2022/09/11 19:59:38;;;;;;;;;;;;;;;;;;6184755;23;20245;-74
2022/09/11 20:02:04;;;;;;;;;;;;;;;;;;6210998;23;20243;-73
2022/09/11 20:04:29;;;;;;;;;;;;;;;;;;6160475;23;19912;-74
2022/09/11 20:06:55;;;;;;;;;;;;;;;;;;6212145;23;19916;-73
2022/09/11 20:09:20;;;;;;;;;;;;;;;;;;6213177;23;19922;-75
2022/09/11 20:11:46;;;;;;;;;;;;;;;;;;6211959;23;19912;-74
2022/09/11 20:14:12;;;;;;;;;;;;;;;;;;6212032;23;19912;-74
2022/09/11 20:16:37;;;;;;;;;;;;;;;;;;6210338;23;20386;-74
2022/09/11 20:19:08;;;;;;;;;;;;;;;;;;6211006;23;20276;-73
2022/09/11 20:21:34;;;;;;;;;;;;;;;;;;6186125;23;20026;-74
2022/09/11 20:23:59;;;;;;;;;;;;;;;;;;6211461;23;20407;-74
2022/09/11 20:26:26;;;;;;;;;;;;;;;;;;6211186;23;19991;-75
2022/09/11 20:28:51;;;;;;;;;;;;;;;;;;6216559;23;19919;-74
2022/09/11 20:31:17;;;;;;;;;;;;;;;;;;6210993;23;20260;-74
2022/09/11 20:33:43;;;;;;;;;;;;;;;;;;6211109;23;20367;-75
2022/09/11 20:36:08;;;;;;;;;;;;;;;;;;6184569;23;20312;-73
2022/09/11 20:38:34;;;;;;;;;;;;;;;;;;6209128;23;19927;-73
2022/09/11 20:40:59;;;;;;;;;;;;;;;;;;6234648;23;19923;-74
2022/09/11 20:43:25;;;;;;;;;;;;;;;;;;6210870;23;19916;-73
2022/09/11 20:45:50;;;;;;;;;;;;;;;;;;6211114;23;19994;-74
2022/09/11 20:48:19;;;;;;;;;;;;;;;;;;6209513;23;19912;-74
2022/09/11 20:50:45;;;;;;;;;;;;;;;;;;6235164;23;19918;-74
2022/09/11 20:53:10;;;;;;;;;;;;;;;;;;6208823;23;19912;-72
2022/09/11 20:55:36;;;;;;;;;;;;;;;;;;6209508;23;20263;-74
2022/09/11 20:58:01;;;;;;;;;;;;;;;;;;6210544;23;20264;-74
2022/09/11 21:00:27;;;;;;;;;;;;;;;;;;6210908;23;19960;-73
2022/09/11 21:02:53;;;;;;;;;;;;;;;;;;6210660;23;20356;-75
2022/09/11 21:05:18;;;;;;;;;;;;;;;;;;6208851;23;20352;-75
2022/09/11 21:07:44;;;;;;;;;;;;;;;;;;6211210;23;20337;-74
2022/09/11 21:10:10;;;;;;;;;;;;;;;;;;6234143;22;19919;-73
2022/09/11 21:12:36;;;;;;;;;;;;;;;;;;6206346;23;20340;-73
2022/09/11 21:15:01;;;;;;;;;;;;;;;;;;6207669;23;19927;-73
2022/09/11 21:17:28;;;;;;;;;;;;;;;;;;6208993;23;19955;-74
2022/09/11 21:19:54;;;;;;;;;;;;;;;;;;6210469;23;20245;-72
2022/09/11 21:22:19;;;;;;;;;;;;;;;;;;6208940;23;20014;-73
2022/09/11 21:24:45;;;;;;;;;;;;;;;;;;6234644;23;19991;-72
2022/09/11 21:27:10;;;;;;;;;;;;;;;;;;6208562;23;20412;-73
2022/09/11 21:29:37;;;;;;;;;;;;;;;;;;6208549;23;19920;-74
2022/09/11 21:32:02;;;;;;;;;;;;;;;;;;6210056;23;19982;-73
2022/09/11 21:34:28;;;;;;;;;;;;;;;;;;6210811;23;19916;-73
2022/09/11 21:36:53;;;;;;;;;;;;;;;;;;6183669;23;19919;-73
2022/09/11 21:39:19;;;;;;;;;;;;;;;;;;6210817;23;19965;-73